createdAt,value
2023-02-03T00:05:26.283Z,37.58
2023-02-03T00:07:53.525Z,37.68
2023-02-03T00:10:21.528Z,38.20
2023-02-03T00:12:54.937Z,38.03
2023-02-03T00:15:23.204Z,37.93
2023-02-03T00:17:51.014Z,38.19
2023-02-03T00:20:17.816Z,37.81
2023-02-03T00:22:44.372Z,37.62
2023-02-03T00:25:12.420Z,37.84
2023-02-03T00:27:39.008Z,37.93
2023-02-03T00:30:06.604Z,37.68
2023-02-03T00:32:33.225Z,37.61
2023-02-03T00:34:59.905Z,37.74
2023-02-03T00:37:26.565Z,37.32
2023-02-03T00:39:53.299Z,37.48
2023-02-03T00:42:19.991Z,37.48
2023-02-03T00:44:46.635Z,37.69
2023-02-03T00:47:13.140Z,37.65
2023-02-03T00:49:39.842Z,37.77
2023-02-03T00:52:06.379Z,37.55
2023-02-03T00:54:33.802Z,37.59
2023-02-03T00:57:00.498Z,37.49
2023-02-03T00:59:27.048Z,37.24
2023-02-03T01:01:53.673Z,37.31
2023-02-03T01:04:20.432Z,37.22
2023-02-03T01:06:46.965Z,36.98
2023-02-03T01:09:13.539Z,37.31
2023-02-03T01:11:40.407Z,36.87
2023-02-03T01:14:07.631Z,37.03
2023-02-03T01:16:38.193Z,36.85
2023-02-03T01:19:05.026Z,37.12
2023-02-03T01:21:32.243Z,37.08
2023-02-03T01:23:59.566Z,36.85
2023-02-03T01:26:26.515Z,36.98
2023-02-03T01:28:55.239Z,36.72
2023-02-03T01:31:28.789Z,36.59
2023-02-03T01:33:56.721Z,36.42
2023-02-03T01:36:26.365Z,36.44
2023-02-03T01:38:53.566Z,36.24
2023-02-03T01:41:25.781Z,36.63
2023-02-03T01:43:54.933Z,36.41
2023-02-03T01:46:21.421Z,36.26
2023-02-03T01:48:48.118Z,36.06
2023-02-03T01:51:15.027Z,36.10
2023-02-03T01:53:42.279Z,36.02
2023-02-03T01:56:09.700Z,36.04
2023-02-03T01:58:39.661Z,35.92
2023-02-03T02:01:07.081Z,36.03
2023-02-03T02:04:04.507Z,35.98
2023-02-03T02:06:31.165Z,36.01
2023-02-03T02:09:00.745Z,35.67
2023-02-03T02:11:28.220Z,35.64
2023-02-03T02:13:58.175Z,35.64
2023-02-03T02:16:45.741Z,35.54
2023-02-03T02:19:37.479Z,35.69
2023-02-03T02:22:17.616Z,35.48
2023-02-03T02:25:10.045Z,35.63
2023-02-03T02:27:42.648Z,35.44
2023-02-03T02:30:18.255Z,35.46
2023-02-03T02:32:51.603Z,35.14
2023-02-03T02:35:33.393Z,35.39
2023-02-03T02:38:39.716Z,35.39
2023-02-03T02:41:13.512Z,35.31
2023-02-03T02:43:47.269Z,35.40
2023-02-03T02:46:18.123Z,35.05
2023-02-03T02:49:10.167Z,35.03
2023-02-03T02:51:40.592Z,35.04
2023-02-03T02:54:11.895Z,34.95
2023-02-03T02:56:40.675Z,34.95
2023-02-03T02:59:08.810Z,34.90
2023-02-03T03:01:35.719Z,34.71
2023-02-03T03:04:06.629Z,34.72
2023-02-03T03:06:56.377Z,34.61
2023-02-03T03:09:48.403Z,34.58
2023-02-03T03:12:21.091Z,34.52
2023-02-03T03:14:53.506Z,34.52
2023-02-03T03:17:24.647Z,34.58
2023-02-03T03:19:56.187Z,34.43
2023-02-03T03:22:34.336Z,34.65
2023-02-03T03:25:15.950Z,34.29
2023-02-03T03:27:49.736Z,34.44
2023-02-03T03:30:37.511Z,34.21
2023-02-03T03:33:05.679Z,34.34
2023-02-03T03:35:55.203Z,34.46
2023-02-03T03:38:31.937Z,34.45
2023-02-03T03:41:05.716Z,34.17
2023-02-03T03:43:38.950Z,34.17
2023-02-03T03:46:14.056Z,34.13
2023-02-03T03:48:50.463Z,34.19
2023-02-03T03:51:26.654Z,33.98
2023-02-03T03:53:56.281Z,34.15
2023-02-03T03:56:28.668Z,33.87
2023-02-03T03:58:57.797Z,33.91
2023-02-03T04:01:25.260Z,33.92
2023-02-03T04:04:02.789Z,33.70
2023-02-03T04:06:29.380Z,34.00
2023-02-03T04:08:56.114Z,33.56
2023-02-03T04:11:41.164Z,33.96
2023-02-03T04:14:07.831Z,34.05
2023-02-03T04:16:34.415Z,33.91
2023-02-03T04:19:00.997Z,33.82
2023-02-03T04:21:27.504Z,33.62
2023-02-03T04:23:56.502Z,33.71
2023-02-03T04:26:23.847Z,33.74
2023-02-03T04:28:52.546Z,33.51
2023-02-03T04:31:19.263Z,33.68
2023-02-03T04:33:45.924Z,33.68
2023-02-03T04:36:12.533Z,33.30
2023-02-03T04:38:39.103Z,33.46
2023-02-03T04:41:05.632Z,33.72
2023-02-03T04:43:32.257Z,33.79
2023-02-03T04:46:02.107Z,33.67
2023-02-03T04:48:29.029Z,33.97
2023-02-03T04:50:55.607Z,33.87
2023-02-03T04:53:22.330Z,34.25
2023-02-03T04:55:49.078Z,34.03
2023-02-03T04:58:15.664Z,34.39
2023-02-03T05:00:42.230Z,34.50
2023-02-03T05:03:08.868Z,34.92
2023-02-03T05:05:35.365Z,34.98
2023-02-03T05:08:01.953Z,35.34
2023-02-03T05:10:28.770Z,35.34
2023-02-03T05:12:55.548Z,35.44
2023-02-03T05:15:22.070Z,34.89
2023-02-03T05:17:48.865Z,35.29
2023-02-03T05:20:15.436Z,34.89
2023-02-03T05:22:42.003Z,35.08
2023-02-03T05:25:08.913Z,34.62
2023-02-03T05:27:37.948Z,34.67
2023-02-03T05:30:05.241Z,34.72
2023-02-03T05:32:32.038Z,34.46
2023-02-03T05:34:58.544Z,34.50
2023-02-03T05:37:25.105Z,34.65
2023-02-03T05:39:51.667Z,34.37
2023-02-03T05:42:18.185Z,34.46
2023-02-03T05:44:44.694Z,34.21
2023-02-03T05:47:11.301Z,34.13
2023-02-03T05:49:37.787Z,34.14
2023-02-03T05:52:04.526Z,34.08
2023-02-03T05:54:31.688Z,34.34
2023-02-03T05:56:58.328Z,34.10
2023-02-03T05:59:24.875Z,34.07
2023-02-03T06:01:51.516Z,34.14
2023-02-03T06:04:18.147Z,33.91
2023-02-03T06:06:44.948Z,34.36
2023-02-03T06:09:11.460Z,34.07
2023-02-03T06:11:38.138Z,34.11
2023-02-03T06:14:04.858Z,33.98
2023-02-03T06:16:31.647Z,33.64
2023-02-03T06:18:59.627Z,33.94
2023-02-03T06:21:26.793Z,33.65
2023-02-03T06:23:53.566Z,33.93
2023-02-03T06:26:20.303Z,33.90
2023-02-03T06:28:46.886Z,33.99
2023-02-03T06:31:13.684Z,34.14
2023-02-03T06:33:40.229Z,34.54
2023-02-03T06:36:07.019Z,34.58
2023-02-03T06:38:33.663Z,34.67
2023-02-03T06:41:00.285Z,34.61
2023-02-03T06:43:26.817Z,34.74
2023-02-03T06:45:53.495Z,35.08
2023-02-03T06:48:20.018Z,34.97
2023-02-03T06:50:48.629Z,34.95
2023-02-03T06:53:15.459Z,35.39
2023-02-03T06:55:42.155Z,34.90
2023-02-03T06:58:08.792Z,35.18
2023-02-03T07:00:35.545Z,34.91
2023-02-03T07:03:02.872Z,35.13
2023-02-03T07:05:29.724Z,34.91
2023-02-03T07:07:56.425Z,34.75
2023-02-03T07:10:23.185Z,34.73
2023-02-03T07:12:50.930Z,34.85
2023-02-03T07:15:18.082Z,34.82
2023-02-03T07:17:48.543Z,34.47
2023-02-03T07:20:15.301Z,34.70
2023-02-03T07:22:43.879Z,34.57
2023-02-03T07:25:10.518Z,34.41
2023-02-03T07:27:37.031Z,34.61
2023-02-03T07:30:04.716Z,34.44
2023-02-03T07:32:32.860Z,34.23
2023-02-03T07:35:01.283Z,34.42
2023-02-03T07:37:27.847Z,34.50
2023-02-03T07:39:54.487Z,34.43
2023-02-03T07:42:20.982Z,34.74
2023-02-03T07:44:50.647Z,34.79
2023-02-03T07:47:17.151Z,34.57
2023-02-03T07:49:43.763Z,34.73
2023-02-03T07:52:10.327Z,34.94
2023-02-03T07:54:36.867Z,35.02
2023-02-03T07:57:03.471Z,34.97
2023-02-03T07:59:30.098Z,35.06
2023-02-03T08:01:56.644Z,34.74
2023-02-03T08:04:24.368Z,34.38
2023-02-03T08:06:50.981Z,34.26
2023-02-03T08:09:17.623Z,34.01
2023-02-03T08:11:44.129Z,33.95
2023-02-03T08:14:10.742Z,33.90
2023-02-03T08:16:37.577Z,34.05
2023-02-03T08:19:04.186Z,34.36
2023-02-03T08:21:31.062Z,34.63
2023-02-03T08:23:57.622Z,34.40
2023-02-03T08:26:24.136Z,34.47
2023-02-03T08:28:50.957Z,34.37
2023-02-03T08:31:17.926Z,34.57
2023-02-03T08:33:44.655Z,34.72
2023-02-03T08:36:14.061Z,34.63
2023-02-03T08:38:41.794Z,34.99
2023-02-03T08:41:11.002Z,34.69
2023-02-03T08:43:37.715Z,34.69
2023-02-03T08:46:06.125Z,34.88
2023-02-03T08:48:33.247Z,34.97
2023-02-03T08:51:00.264Z,34.71
2023-02-03T08:53:27.500Z,34.75
2023-02-03T08:55:54.120Z,34.43
2023-02-03T08:58:20.836Z,34.48
2023-02-03T09:00:49.782Z,34.56
2023-02-03T09:03:16.437Z,34.50
2023-02-03T09:05:43.066Z,34.59
2023-02-03T09:08:09.716Z,34.50
2023-02-03T09:10:36.578Z,34.65
2023-02-03T09:13:03.634Z,34.61
2023-02-03T09:15:30.452Z,34.74
2023-02-03T09:17:57.893Z,34.58
2023-02-03T09:20:26.425Z,34.65
2023-02-03T09:22:54.927Z,34.90
2023-02-03T09:25:21.577Z,34.71
2023-02-03T09:27:48.319Z,34.63
2023-02-03T09:30:15.044Z,34.61
2023-02-03T09:32:42.105Z,34.58
2023-02-03T09:35:17.594Z,34.62
2023-02-03T09:37:44.152Z,34.93
2023-02-03T09:40:20.829Z,34.85
2023-02-03T09:43:04.074Z,34.51
2023-02-03T09:45:31.817Z,34.76
2023-02-03T09:48:05.567Z,34.69
2023-02-03T09:50:35.650Z,34.77
2023-02-03T09:53:17.774Z,34.53
2023-02-03T09:55:46.268Z,34.84
2023-02-03T09:58:15.594Z,35.11
2023-02-03T10:00:46.295Z,34.94
2023-02-03T10:03:49.225Z,35.01
2023-02-03T10:06:21.649Z,34.87
2023-02-03T10:08:50.957Z,34.68
2023-02-03T10:11:41.665Z,34.52
2023-02-03T10:14:27.625Z,34.30
2023-02-03T10:17:08.512Z,34.02
2023-02-03T10:19:48.114Z,34.15
2023-02-03T10:22:20.087Z,33.91
2023-02-03T10:24:49.863Z,34.01
2023-02-03T10:27:24.590Z,34.18
2023-02-03T10:29:59.232Z,34.04
2023-02-03T10:32:27.821Z,34.38
2023-02-03T10:34:55.318Z,34.44
2023-02-03T10:37:32.918Z,34.41
2023-02-03T10:40:01.693Z,34.30
2023-02-03T10:42:51.273Z,34.50
2023-02-03T10:45:18.374Z,34.35
2023-02-03T10:47:52.308Z,34.18
2023-02-03T10:50:24.558Z,34.27
2023-02-03T10:52:51.213Z,34.13
2023-02-03T10:55:26.901Z,34.32
2023-02-03T10:57:54.325Z,33.98
2023-02-03T11:00:29.116Z,34.01
2023-02-03T11:03:00.642Z,34.12
2023-02-03T11:05:27.430Z,34.05
2023-02-03T11:07:56.779Z,34.01
2023-02-03T11:10:26.600Z,34.28
2023-02-03T11:13:08.829Z,33.97
2023-02-03T11:15:35.520Z,33.88
2023-02-03T11:18:02.099Z,34.00
2023-02-03T11:20:29.755Z,33.79
2023-02-03T11:22:56.627Z,33.81
2023-02-03T11:25:32.427Z,33.74
2023-02-03T11:28:06.819Z,33.55
2023-02-03T11:30:34.707Z,33.72
2023-02-03T11:33:02.588Z,33.52
2023-02-03T11:35:31.700Z,33.22
2023-02-03T11:38:02.053Z,33.40
2023-02-03T11:40:31.038Z,33.45
2023-02-03T11:42:57.565Z,33.13
2023-02-03T11:45:44.855Z,33.37
2023-02-03T11:48:23.352Z,33.39
2023-02-03T11:51:34.934Z,33.14
2023-02-03T11:54:13.468Z,32.80
2023-02-03T11:56:58.347Z,32.97
2023-02-03T11:59:57.328Z,32.81
2023-02-03T12:02:39.041Z,32.88
2023-02-03T12:05:17.551Z,32.78
2023-02-03T12:07:44.090Z,32.50
2023-02-03T12:10:32.014Z,32.49
2023-02-03T12:12:58.710Z,32.55
2023-02-03T12:15:28.213Z,32.44
2023-02-03T12:18:07.147Z,32.37
2023-02-03T12:20:33.667Z,32.45
2023-02-03T12:23:12.347Z,32.52
2023-02-03T12:25:57.249Z,33.03
2023-02-03T12:28:49.015Z,33.03
2023-02-03T12:31:22.989Z,33.23
2023-02-03T12:33:56.453Z,33.67
2023-02-03T12:37:05.424Z,34.05
2023-02-03T12:39:41.498Z,34.00
2023-02-03T12:42:31.223Z,34.25
2023-02-03T12:45:11.728Z,34.49
2023-02-03T12:47:51.475Z,34.52
2023-02-03T12:50:21.771Z,34.41
2023-02-03T12:52:58.502Z,33.91
2023-02-03T12:55:37.383Z,33.49
2023-02-03T12:58:12.739Z,33.08
2023-02-03T13:00:51.609Z,32.90
2023-02-03T13:03:36.360Z,32.56
2023-02-03T13:06:22.592Z,32.67
2023-02-03T13:08:52.053Z,32.59
2023-02-03T13:11:37.429Z,32.41
2023-02-03T13:14:14.318Z,32.33
2023-02-03T13:16:44.709Z,32.43
2023-02-03T13:19:18.684Z,32.26
2023-02-03T13:21:47.831Z,32.17
2023-02-03T13:24:14.487Z,32.16
2023-02-03T13:27:01.207Z,32.13
2023-02-03T13:29:46.129Z,32.01
2023-02-03T13:32:15.530Z,31.75
2023-02-03T13:35:06.217Z,31.81
2023-02-03T13:37:43.644Z,31.74
2023-02-03T13:40:41.825Z,31.83
2023-02-03T13:43:32.054Z,31.94
2023-02-03T13:46:06.874Z,31.72
2023-02-03T13:48:35.617Z,31.46
2023-02-03T13:51:24.235Z,31.78
2023-02-03T13:53:59.053Z,31.72
2023-02-03T13:56:28.602Z,32.06
2023-02-03T13:58:59.553Z,32.23
2023-02-03T14:01:33.813Z,32.51
2023-02-03T14:04:01.427Z,32.68
2023-02-03T14:06:40.001Z,33.07
2023-02-03T14:09:30.968Z,33.27
2023-02-03T14:12:16.040Z,33.90
2023-02-03T14:14:44.993Z,33.80
2023-02-03T14:17:36.249Z,34.18
2023-02-03T14:20:24.116Z,34.42
2023-02-03T14:22:53.461Z,34.78
2023-02-03T14:25:21.351Z,34.82
2023-02-03T14:27:59.481Z,34.89
2023-02-03T14:30:26.274Z,34.48
2023-02-03T14:32:57.861Z,33.87
2023-02-03T14:35:35.474Z,33.20
2023-02-03T14:38:05.259Z,32.76
2023-02-03T14:40:47.043Z,32.49
2023-02-03T14:43:28.888Z,32.54
2023-02-03T14:46:07.681Z,32.15
2023-02-03T14:48:45.002Z,31.88
2023-02-03T14:51:39.686Z,31.81
2023-02-03T14:54:41.422Z,31.86
2023-02-03T14:57:43.782Z,31.87
2023-02-03T15:00:19.502Z,31.69
2023-02-03T15:03:09.019Z,31.70
2023-02-03T15:05:40.216Z,31.88
2023-02-03T15:08:43.244Z,31.44
2023-02-03T15:11:23.142Z,31.41
2023-02-03T15:13:50.048Z,31.31
2023-02-03T15:16:20.910Z,31.60
2023-02-03T15:18:57.786Z,31.29
2023-02-03T15:21:25.246Z,31.43
2023-02-03T15:23:53.232Z,31.57
2023-02-03T15:26:25.384Z,31.66
2023-02-03T15:28:56.644Z,31.29
2023-02-03T15:31:46.009Z,31.41
2023-02-03T15:34:23.160Z,31.47
2023-02-03T15:36:54.419Z,31.43
2023-02-03T15:39:39.124Z,31.25
2023-02-03T15:42:14.432Z,31.10
2023-02-03T15:44:55.817Z,31.06
2023-02-03T15:47:32.258Z,31.03
2023-02-03T15:50:06.870Z,31.20
2023-02-03T15:52:40.625Z,31.69
2023-02-03T15:55:33.255Z,31.85
2023-02-03T15:58:00.458Z,31.96
2023-02-03T16:00:38.213Z,32.19
2023-02-03T16:03:15.796Z,32.72
2023-02-03T16:05:44.719Z,33.31
2023-02-03T16:08:34.837Z,33.52
2023-02-03T16:11:01.746Z,34.21
2023-02-03T16:13:29.825Z,34.74
2023-02-03T16:16:08.414Z,34.91
2023-02-03T16:18:36.744Z,34.93
2023-02-03T16:21:05.381Z,35.28
2023-02-03T16:23:32.917Z,34.79
2023-02-03T16:26:07.818Z,34.76
2023-02-03T16:28:53.112Z,34.61
2023-02-03T16:31:39.896Z,34.36
2023-02-03T16:34:32.632Z,34.41
2023-02-03T16:37:18.108Z,34.13
2023-02-03T16:40:03.662Z,34.03
2023-02-03T16:42:58.603Z,33.74
2023-02-03T16:45:44.408Z,33.79
2023-02-03T16:48:33.504Z,33.54
2023-02-03T16:51:12.817Z,33.54
2023-02-03T16:53:40.341Z,33.49
2023-02-03T16:56:07.218Z,33.47
2023-02-03T16:58:33.975Z,33.20
2023-02-03T17:01:02.948Z,33.37
2023-02-03T17:03:30.284Z,33.30
2023-02-03T17:05:57.521Z,33.20
2023-02-03T17:08:26.004Z,33.23
2023-02-03T17:10:52.791Z,33.32
2023-02-03T17:13:21.775Z,33.22
2023-02-03T17:15:52.526Z,32.96
2023-02-03T17:18:19.851Z,32.93
2023-02-03T17:20:47.486Z,32.92
2023-02-03T17:23:16.550Z,33.08
2023-02-03T17:25:47.907Z,33.27
2023-02-03T17:28:14.689Z,33.04
2023-02-03T17:30:41.662Z,33.11
2023-02-03T17:33:17.633Z,33.21
2023-02-03T17:35:45.307Z,33.08
2023-02-03T17:38:14.268Z,32.92
2023-02-03T17:54:29.138Z,33.08
2023-02-03T17:56:55.692Z,33.13
2023-02-03T17:59:22.299Z,32.99
2023-02-03T18:01:52.955Z,33.21
2023-02-03T18:04:19.603Z,32.95
2023-02-03T18:06:46.424Z,33.10
2023-02-03T18:09:16.462Z,33.51
2023-02-03T18:11:44.802Z,33.68
2023-02-03T18:14:13.066Z,34.17
2023-02-03T18:16:40.282Z,34.19
2023-02-03T18:19:11.689Z,34.35
2023-02-03T18:21:38.955Z,34.39
2023-02-03T18:24:05.880Z,34.36
2023-02-03T18:26:36.342Z,34.35
2023-02-03T18:29:05.477Z,34.37
2023-02-03T18:31:32.586Z,34.25
2023-02-03T18:34:03.347Z,34.21
2023-02-03T18:36:30.110Z,34.22
2023-02-03T18:38:56.687Z,34.17
2023-02-03T18:41:25.155Z,34.37
2023-02-03T18:43:52.278Z,34.31
2023-02-03T18:46:22.922Z,34.14
2023-02-03T18:48:50.258Z,34.65
2023-02-03T18:51:18.558Z,35.79
2023-02-03T18:53:46.643Z,35.92
2023-02-03T18:56:16.788Z,36.20
2023-02-03T18:58:43.547Z,35.85
2023-02-03T19:01:10.570Z,35.85
2023-02-03T19:03:38.655Z,35.67
2023-02-03T19:06:09.402Z,35.58
2023-02-03T19:08:36.056Z,35.39
2023-02-03T19:11:02.606Z,35.33
2023-02-03T19:13:29.207Z,35.54
2023-02-03T19:15:55.763Z,35.15
2023-02-03T19:18:22.436Z,35.25
2023-02-03T19:20:51.640Z,34.94
2023-02-03T19:23:18.289Z,35.46
2023-02-03T19:25:49.766Z,35.92
2023-02-03T19:28:20.278Z,36.39
2023-02-03T19:31:00.114Z,36.57
2023-02-03T19:33:32.955Z,36.76
2023-02-03T19:35:59.671Z,36.66
2023-02-03T19:38:26.313Z,36.56
2023-02-03T19:40:52.939Z,36.56
2023-02-03T19:43:19.680Z,36.51
2023-02-03T19:45:46.302Z,36.51
2023-02-03T19:48:13.711Z,36.44
2023-02-03T19:50:45.748Z,36.29
2023-02-03T19:53:17.293Z,36.47
2023-02-03T19:55:45.527Z,36.37
2023-02-03T19:58:13.940Z,36.40
2023-02-03T20:00:41.766Z,36.53
2023-02-03T20:03:08.771Z,36.46
2023-02-03T20:05:36.527Z,36.53
2023-02-03T20:08:04.070Z,36.52
2023-02-03T20:10:32.536Z,36.57
2023-02-03T20:13:02.206Z,36.49
2023-02-03T20:15:29.134Z,36.22
2023-02-03T20:17:56.218Z,36.35
2023-02-03T20:20:22.977Z,36.35
2023-02-03T20:22:49.898Z,36.44
2023-02-03T20:25:17.016Z,36.15
2023-02-03T20:27:43.612Z,36.23
2023-02-03T20:30:11.320Z,36.18
2023-02-03T20:32:38.531Z,36.09
2023-02-03T20:35:06.285Z,36.06
2023-02-03T20:37:35.891Z,36.35
2023-02-03T20:40:06.273Z,36.21
2023-02-03T20:42:36.631Z,36.19
2023-02-03T20:45:10.878Z,36.20
2023-02-03T20:47:37.629Z,36.28
2023-02-03T20:50:11.058Z,36.50
2023-02-03T20:52:37.992Z,36.46
2023-02-03T20:55:11.672Z,36.42
2023-02-03T20:57:38.789Z,36.08
2023-02-03T21:00:15.635Z,35.98
2023-02-03T21:03:16.035Z,36.01
2023-02-03T21:05:45.354Z,35.98
2023-02-03T21:08:19.956Z,35.84
2023-02-03T21:10:47.953Z,35.88
2023-02-03T21:13:35.861Z,35.72
2023-02-03T21:16:15.104Z,35.64
2023-02-03T21:18:51.965Z,35.71
2023-02-03T21:21:27.432Z,35.73
2023-02-03T21:23:54.814Z,36.24
2023-02-03T21:26:22.451Z,36.40
2023-02-03T21:28:51.730Z,36.13
2023-02-03T21:31:34.413Z,36.16
2023-02-03T21:34:23.580Z,36.07
2023-02-03T21:36:50.215Z,36.20
2023-02-03T21:39:28.076Z,35.95
2023-02-03T21:41:55.983Z,35.81
2023-02-03T21:44:32.130Z,35.80
2023-02-03T21:47:05.704Z,35.63
2023-02-03T21:49:34.112Z,35.71
2023-02-03T21:52:00.652Z,35.49
2023-02-03T21:54:30.360Z,35.56
2023-02-03T21:56:58.231Z,35.55
2023-02-03T21:59:29.654Z,35.35
2023-02-03T22:01:59.971Z,35.54
2023-02-03T22:04:30.773Z,35.29
2023-02-03T22:06:57.331Z,35.63
2023-02-03T22:09:25.922Z,35.30
2023-02-03T22:11:53.064Z,35.08
2023-02-03T22:14:23.526Z,35.18
2023-02-03T22:16:50.732Z,35.36
2023-02-03T22:19:17.651Z,35.28
2023-02-03T22:21:44.773Z,35.36
2023-02-03T22:24:11.814Z,35.25
2023-02-03T22:26:38.627Z,35.32
2023-02-03T22:29:06.441Z,35.34
2023-02-03T22:31:33.258Z,35.15
2023-02-03T22:33:59.935Z,35.12
2023-02-03T22:36:26.606Z,35.28
2023-02-03T22:38:53.221Z,35.32
2023-02-03T22:41:20.937Z,35.04
2023-02-03T22:43:47.950Z,35.16
2023-02-03T22:46:14.747Z,35.22
2023-02-03T22:48:41.394Z,35.19
2023-02-03T22:51:08.112Z,35.07
2023-02-03T22:53:34.983Z,35.02
2023-02-03T22:56:01.770Z,35.14
2023-02-03T22:58:28.324Z,34.87
2023-02-03T23:00:55.004Z,35.03
2023-02-03T23:03:21.744Z,34.80
2023-02-03T23:05:48.354Z,34.84
2023-02-03T23:08:14.951Z,35.10
2023-02-03T23:10:41.540Z,34.70
2023-02-03T23:13:08.214Z,34.85
2023-02-03T23:15:34.886Z,35.34
2023-02-03T23:18:01.790Z,35.34
2023-02-03T23:20:28.631Z,35.59
2023-02-03T23:22:55.344Z,35.48
2023-02-03T23:25:21.882Z,35.41
2023-02-03T23:27:51.201Z,35.35
2023-02-03T23:30:17.928Z,35.46
2023-02-03T23:32:44.448Z,35.37
2023-02-03T23:35:29.674Z,35.31
2023-02-03T23:37:56.217Z,35.39
2023-02-03T23:40:22.791Z,35.42
2023-02-03T23:42:49.747Z,35.31
2023-02-03T23:45:16.617Z,35.28
2023-02-03T23:47:44.937Z,35.20
2023-02-03T23:50:14.979Z,35.14
2023-02-03T23:52:41.684Z,35.25
2023-02-03T23:55:14.191Z,34.97
2023-02-03T23:57:43.662Z,35.08
